Time;durP1;ratioP1;P1;durP2;ratioP2;P2;SDS_P1;SDS_P2;PMS_P1;PMS_P2;Temp;Humidity;BMP_temperature;BMP_pressure;BME280_temperature;BME280_humidity;BME280_pressure;Samples;Min_cycle;Max_cycle;Signal;HPM_P1;HPM_P2
2022/07/30 00:02:21;;;;;;;2.95;1.90;;;22.80;53.50;;;;;;5064054;28;20044;-81
2022/07/30 00:04:47;;;;;;;2.40;2.00;;;22.70;53.50;;;;;;5056889;28;20112;-79
2022/07/30 00:07:13;;;;;;;2.80;1.90;;;22.70;53.60;;;;;;5063181;28;20033;-81
2022/07/30 00:09:39;;;;;;;2.47;1.90;;;22.70;53.70;;;;;;5059588;28;20033;-80
2022/07/30 00:12:05;;;;;;;1.80;1.70;;;22.60;53.60;;;;;;5068083;28;20037;-80
2022/07/30 00:14:33;;;;;;;3.05;1.88;;;22.60;53.60;;;;;;5063803;28;20029;-81
2022/07/30 00:17:00;;;;;;;2.40;1.83;;;22.60;53.70;;;;;;5064954;28;20036;-81
2022/07/30 00:19:25;;;;;;;2.88;2.00;;;22.60;53.80;;;;;;5067681;28;20166;-81
2022/07/30 00:21:53;;;;;;;3.00;1.85;;;22.60;53.80;;;;;;5064462;28;20111;-85
2022/07/30 00:24:19;;;;;;;2.38;1.75;;;22.50;53.80;;;;;;5060783;28;20454;-80
2022/07/30 00:26:45;;;;;;;3.08;2.08;;;22.50;53.80;;;;;;5066546;28;20036;-82
2022/07/30 00:29:11;;;;;;;2.42;1.80;;;22.50;53.80;;;;;;5080888;28;20466;-82
2022/07/30 00:31:37;;;;;;;2.33;1.83;;;22.50;53.90;;;;;;5070081;28;20062;-82
2022/07/30 00:34:04;;;;;;;2.90;1.90;;;22.50;54.00;;;;;;5062516;28;20056;-80
2022/07/30 00:36:29;;;;;;;2.60;1.88;;;22.40;54.00;;;;;;5063143;28;20037;-79
2022/07/30 00:38:55;;;;;;;4.50;1.90;;;22.40;54.00;;;;;;5068464;28;20051;-80
2022/07/30 00:41:21;;;;;;;3.50;2.05;;;22.40;54.00;;;;;;5047689;28;20037;-83
2022/07/30 00:43:47;;;;;;;2.72;1.77;;;22.40;54.10;;;;;;5061228;28;20046;-80
2022/07/30 00:46:13;;;;;;;4.32;2.00;;;22.40;54.10;;;;;;5079072;28;20530;-80
2022/07/30 00:48:40;;;;;;;3.22;2.03;;;22.30;54.20;;;;;;5063710;28;20131;-80
2022/07/30 00:51:06;;;;;;;2.85;1.85;;;22.30;54.20;;;;;;5089504;28;20024;-80
2022/07/30 00:53:33;;;;;;;3.28;2.05;;;22.30;54.20;;;;;;5061537;28;20044;-80
2022/07/30 00:55:59;;;;;;;2.88;1.95;;;22.30;54.30;;;;;;5064779;28;20469;-82
2022/07/30 00:58:25;;;;;;;2.08;1.67;;;22.30;54.30;;;;;;5055229;28;20397;-80
2022/07/30 01:00:51;;;;;;;3.28;2.15;;;22.30;54.50;;;;;;5067001;28;20024;-80
2022/07/30 01:03:17;;;;;;;4.30;1.90;;;22.20;54.50;;;;;;5064407;28;20063;-79
2022/07/30 01:05:42;;;;;;;2.85;2.00;;;22.20;54.60;;;;;;5049078;28;20463;-80
2022/07/30 01:08:08;;;;;;;2.25;1.80;;;22.20;54.70;;;;;;5060291;28;20032;-80
2022/07/30 01:10:34;;;;;;;2.65;1.73;;;22.20;54.60;;;;;;5032014;28;20024;-80
2022/07/30 01:13:00;;;;;;;2.45;1.70;;;22.10;54.60;;;;;;5059883;28;20024;-81
2022/07/30 01:15:27;;;;;;;2.78;1.70;;;22.10;54.60;;;;;;5080294;28;20021;-80
2022/07/30 01:17:56;;;;;;;3.60;2.00;;;22.10;54.60;;;;;;5066352;28;20029;-83
2022/07/30 01:20:45;;;;;;;2.22;1.90;;;22.10;54.70;;;;;;5082501;28;20032;-80
2022/07/30 01:23:24;;;;;;;3.33;1.77;;;22.10;54.80;;;;;;5064919;28;20047;-80
2022/07/30 01:25:59;;;;;;;2.47;1.70;;;22.00;54.80;;;;;;5078802;28;20048;-80
2022/07/30 01:28:30;;;;;;;2.50;1.80;;;22.00;54.70;;;;;;5073480;28;20025;-79
2022/07/30 01:30:57;;;;;;;3.15;1.85;;;22.00;54.80;;;;;;5063578;28;20031;-84
2022/07/30 01:33:25;;;;;;;3.28;1.88;;;22.00;54.90;;;;;;5086078;28;20448;-79
2022/07/30 01:35:51;;;;;;;3.00;2.08;;;22.00;54.90;;;;;;5069219;28;20052;-79
2022/07/30 01:38:21;;;;;;;2.85;1.95;;;21.90;54.90;;;;;;5077438;28;20079;-81
2022/07/30 01:40:50;;;;;;;2.78;1.77;;;21.90;54.90;;;;;;5061032;28;20030;-79
2022/07/30 01:43:17;;;;;;;2.53;1.85;;;21.80;54.90;;;;;;5050056;28;20443;-80
2022/07/30 01:45:45;;;;;;;1.77;1.50;;;21.80;55.00;;;;;;5083995;28;20033;-82
2022/07/30 01:48:14;;;;;;;2.78;1.65;;;21.80;55.00;;;;;;5065614;28;20017;-80
2022/07/30 01:50:44;;;;;;;2.95;1.60;;;21.80;55.10;;;;;;5062484;28;20029;-79
2022/07/30 01:53:19;;;;;;;2.08;1.60;;;21.80;55.10;;;;;;5064228;28;20039;-79
2022/07/30 01:55:45;;;;;;;1.83;1.58;;;21.80;55.20;;;;;;5063098;28;20032;-80
2022/07/30 01:58:13;;;;;;;2.28;1.67;;;21.70;55.10;;;;;;5060396;28;21320;-80
2022/07/30 02:00:42;;;;;;;2.67;1.65;;;21.70;55.20;;;;;;5093852;28;20024;-80
2022/07/30 02:03:10;;;;;;;2.65;1.60;;;21.70;55.20;;;;;;5076204;28;20508;-79
2022/07/30 02:05:37;;;;;;;2.85;1.70;;;21.70;55.20;;;;;;5082437;28;20477;-79
2022/07/30 02:08:20;;;;;;;3.17;1.80;;;21.60;55.20;;;;;;5047862;28;20040;-81
2022/07/30 02:10:53;;;;;;;2.15;1.67;;;21.60;55.40;;;;;;5048963;28;20024;-80
2022/07/30 02:13:26;;;;;;;1.58;1.40;;;21.60;55.30;;;;;;5060439;28;20024;-80
2022/07/30 02:16:25;;;;;;;2.45;1.70;;;21.60;55.40;;;;;;5066582;28;20025;-83
2022/07/30 02:19:08;;;;;;;3.15;1.50;;;21.60;55.60;;;;;;5057896;28;20097;-80
2022/07/30 02:21:44;;;;;;;1.73;1.38;;;21.60;55.50;;;;;;5064818;28;20540;-79
2022/07/30 02:24:18;;;;;;;1.77;1.60;;;21.50;55.50;;;;;;5078952;28;20029;-79
2022/07/30 02:26:50;;;;;;;2.17;1.52;;;21.50;55.60;;;;;;5064797;28;20481;-80
2022/07/30 02:29:19;;;;;;;2.95;1.90;;;21.50;55.60;;;;;;5061381;28;20386;-81
2022/07/30 02:31:47;;;;;;;2.92;1.63;;;21.50;55.60;;;;;;5064284;28;20021;-80
2022/07/30 02:34:14;;;;;;;4.40;2.00;;;21.50;55.70;;;;;;5067448;28;20026;-80
2022/07/30 02:36:42;;;;;;;2.83;1.60;;;21.40;55.70;;;;;;5064546;28;20117;-80
2022/07/30 02:39:09;;;;;;;2.38;1.52;;;21.40;55.80;;;;;;5077075;28;20043;-82
2022/07/30 02:41:37;;;;;;;2.30;1.50;;;21.40;55.80;;;;;;5075140;28;20039;-80
2022/07/30 02:44:04;;;;;;;2.38;1.63;;;21.40;55.80;;;;;;5049535;28;20028;-80
2022/07/30 02:46:31;;;;;;;3.10;1.85;;;21.40;55.90;;;;;;5064889;28;20033;-81
2022/07/30 02:49:38;;;;;;;2.10;1.60;;;21.40;55.90;;;;;;5059523;28;20029;-80
2022/07/30 02:52:07;;;;;;;3.35;1.60;;;21.40;55.90;;;;;;5081676;28;20077;-80
2022/07/30 02:54:38;;;;;;;3.55;1.85;;;21.40;55.90;;;;;;5064692;28;20035;-80
2022/07/30 02:57:06;;;;;;;2.33;1.75;;;21.40;56.00;;;;;;5072034;28;20032;-84
2022/07/30 02:59:35;;;;;;;2.63;1.80;;;21.30;56.00;;;;;;5044161;28;20033;-81
2022/07/30 03:02:02;;;;;;;2.03;1.70;;;21.30;56.10;;;;;;5069410;28;20032;-80
2022/07/30 03:04:30;;;;;;;2.20;1.85;;;21.30;56.20;;;;;;5066212;28;20187;-80
2022/07/30 03:06:57;;;;;;;2.53;1.75;;;21.30;56.20;;;;;;5063676;28;20033;-81
2022/07/30 03:09:24;;;;;;;2.50;1.75;;;21.30;56.20;;;;;;5064447;28;20050;-80
2022/07/30 03:11:52;;;;;;;2.58;1.70;;;21.30;56.20;;;;;;5065024;28;20112;-81
2022/07/30 03:14:18;;;;;;;3.15;2.00;;;21.30;56.30;;;;;;5063606;28;20458;-81
2022/07/30 03:16:56;;;;;;;3.47;2.05;;;21.30;56.40;;;;;;5065703;28;20072;-80
2022/07/30 03:19:24;;;;;;;3.47;2.17;;;21.30;56.70;;;;;;5098659;27;20389;-80
2022/07/30 03:21:52;;;;;;;2.67;1.95;;;21.30;56.60;;;;;;5065437;28;20036;-80
2022/07/30 03:24:23;;;;;;;2.90;2.20;;;21.30;56.60;;;;;;5066440;28;20377;-80
2022/07/30 03:26:52;;;;;;;2.67;2.15;;;21.30;56.60;;;;;;5068437;28;20033;-79
2022/07/30 03:29:21;;;;;;;3.03;1.92;;;21.20;56.60;;;;;;5069046;28;20028;-80
2022/07/30 03:31:48;;;;;;;2.63;1.90;;;21.20;56.60;;;;;;5066183;28;20021;-82
2022/07/30 03:34:16;;;;;;;2.75;1.95;;;21.20;56.70;;;;;;5077184;28;20029;-79
2022/07/30 03:36:42;;;;;;;2.85;1.90;;;21.20;56.70;;;;;;5081187;28;20032;-82
2022/07/30 03:39:08;;;;;;;2.95;1.95;;;21.30;56.80;;;;;;5066514;28;20121;-80
2022/07/30 03:41:39;;;;;;;2.25;2.00;;;21.20;56.70;;;;;;5051223;28;20454;-79
2022/07/30 03:44:08;;;;;;;2.75;2.00;;;21.20;56.80;;;;;;5080987;28;20383;-85
2022/07/30 03:46:36;;;;;;;3.53;2.10;;;21.20;56.80;;;;;;5066686;28;20476;-81
2022/07/30 03:49:04;;;;;;;2.92;2.10;;;21.20;56.90;;;;;;5092199;28;20021;-80
2022/07/30 03:51:33;;;;;;;3.00;2.03;;;21.20;56.90;;;;;;5051950;28;20528;-80
2022/07/30 03:54:00;;;;;;;2.97;2.20;;;21.20;56.90;;;;;;5053187;28;20137;-79
2022/07/30 03:56:46;;;;;;;3.35;2.20;;;21.20;56.90;;;;;;5052619;28;20029;-80
2022/07/30 03:59:24;;;;;;;2.30;1.80;;;21.20;56.90;;;;;;5050966;28;20483;-80
2022/07/30 04:01:50;;;;;;;2.70;2.15;;;21.20;56.90;;;;;;5060956;28;20111;-81
2022/07/30 04:04:45;;;;;;;3.20;2.15;;;21.10;56.90;;;;;;5074048;28;20028;-80
2022/07/30 04:07:11;;;;;;;2.63;2.00;;;21.20;56.90;;;;;;5054034;28;20135;-81
2022/07/30 04:09:37;;;;;;;2.92;2.03;;;21.10;57.00;;;;;;5065865;28;20096;-80
2022/07/30 04:12:19;;;;;;;3.72;2.38;;;21.10;57.10;;;;;;5055129;28;20036;-80
2022/07/30 04:14:45;;;;;;;3.13;2.28;;;21.10;57.10;;;;;;5085172;28;20036;-82
2022/07/30 04:17:26;;;;;;;3.13;2.30;;;21.10;57.10;;;;;;5081872;28;20032;-80
2022/07/30 04:19:58;;;;;;;2.05;1.77;;;21.10;57.20;;;;;;5065798;28;20119;-80
2022/07/30 04:22:29;;;;;;;2.90;2.08;;;21.10;57.20;;;;;;5062429;28;20104;-79
2022/07/30 04:24:57;;;;;;;2.63;2.10;;;21.10;57.20;;;;;;5060008;28;20049;-81
2022/07/30 04:27:24;;;;;;;2.80;2.10;;;21.10;57.20;;;;;;5063311;28;20106;-80
2022/07/30 04:29:51;;;;;;;2.53;2.00;;;21.10;57.20;;;;;;5097547;28;20036;-81
2022/07/30 04:32:18;;;;;;;3.33;2.25;;;21.00;57.20;;;;;;5068652;28;20048;-80
2022/07/30 04:34:52;;;;;;;3.22;2.15;;;21.00;57.10;;;;;;5084491;28;20040;-80
2022/07/30 04:37:36;;;;;;;2.80;2.13;;;21.00;57.20;;;;;;5053071;28;20072;-80
2022/07/30 04:40:04;;;;;;;2.80;1.98;;;21.00;57.10;;;;;;5051854;28;20098;-80
2022/07/30 04:42:30;;;;;;;3.65;1.90;;;21.00;57.20;;;;;;5074534;28;20027;-80
2022/07/30 04:45:04;;;;;;;2.08;1.88;;;21.00;57.20;;;;;;5065864;28;20358;-80
2022/07/30 04:47:46;;;;;;;3.80;1.92;;;21.00;57.20;;;;;;5099052;27;20032;-80
2022/07/30 04:50:47;;;;;;;2.55;1.98;;;21.00;57.20;;;;;;5068488;28;20040;-81
2022/07/30 04:53:17;;;;;;;2.15;1.85;;;21.00;57.20;;;;;;5082802;28;20372;-80
2022/07/30 04:55:50;;;;;;;2.30;2.03;;;21.00;57.30;;;;;;5081086;28;20117;-79
2022/07/30 04:58:19;;;;;;;2.53;1.90;;;20.90;57.30;;;;;;5086959;28;20036;-80
2022/07/30 05:00:46;;;;;;;3.20;2.28;;;20.90;57.30;;;;;;5091970;28;20498;-82
2022/07/30 05:03:16;;;;;;;3.45;2.28;;;20.90;57.30;;;;;;5087033;28;20606;-81
2022/07/30 05:05:50;;;;;;;2.60;2.00;;;20.90;57.40;;;;;;5069630;28;20381;-82
2022/07/30 05:08:16;;;;;;;3.10;1.95;;;20.90;57.30;;;;;;5068071;28;20105;-80
2022/07/30 05:10:43;;;;;;;2.42;1.73;;;20.90;57.30;;;;;;5060727;28;20029;-81
2022/07/30 05:13:12;;;;;;;3.35;1.98;;;20.90;57.40;;;;;;5067386;28;20167;-80
2022/07/30 05:15:38;;;;;;;3.20;2.40;;;20.90;57.40;;;;;;5073321;28;20031;-81
2022/07/30 05:18:07;;;;;;;2.63;2.00;;;20.90;57.40;;;;;;5051393;28;20029;-82
2022/07/30 05:20:36;;;;;;;2.33;1.73;;;20.90;57.40;;;;;;5064669;28;20087;-82
2022/07/30 05:23:15;;;;;;;2.55;1.95;;;20.80;57.40;;;;;;5064440;28;20503;-83
2022/07/30 05:25:45;;;;;;;2.70;1.70;;;20.90;57.40;;;;;;5093810;28;20127;-80
2022/07/30 05:28:17;;;;;;;3.13;2.33;;;20.80;57.40;;;;;;5059334;28;20021;-82
2022/07/30 05:30:45;;;;;;;2.30;1.92;;;20.90;57.50;;;;;;5074042;28;20037;-80
2022/07/30 05:33:15;;;;;;;2.10;1.85;;;20.80;57.50;;;;;;5050957;28;20033;-83
2022/07/30 05:35:42;;;;;;;3.05;1.85;;;20.80;57.50;;;;;;5048070;28;20086;-80
2022/07/30 05:38:07;;;;;;;2.05;1.85;;;20.80;57.50;;;;;;5077317;28;20072;-81
2022/07/30 05:40:45;;;;;;;2.53;1.73;;;20.80;57.50;;;;;;5091820;28;20111;-79
2022/07/30 05:43:29;;;;;;;2.78;2.03;;;20.80;57.60;;;;;;5059062;28;20041;-79
2022/07/30 05:45:55;;;;;;;2.42;1.55;;;20.80;57.50;;;;;;5096919;28;20476;-82
2022/07/30 05:48:21;;;;;;;2.25;1.70;;;20.80;57.60;;;;;;5076862;28;20032;-81
2022/07/30 05:50:47;;;;;;;2.70;1.80;;;20.80;57.60;;;;;;5063447;28;20060;-80
2022/07/30 05:53:12;;;;;;;2.45;1.60;;;20.80;57.60;;;;;;5077910;28;20365;-80
2022/07/30 05:56:10;;;;;;;2.08;1.50;;;20.80;57.50;;;;;;5065889;28;20572;-80
2022/07/30 05:58:56;;;;;;;2.85;1.83;;;20.80;57.50;;;;;;5045076;28;20102;-81
2022/07/30 06:01:40;;;;;;;2.03;1.80;;;20.80;57.60;;;;;;5076319;28;20036;-79
2022/07/30 06:04:13;;;;;;;2.13;1.80;;;20.80;57.50;;;;;;5081035;28;20029;-80
2022/07/30 06:06:48;;;;;;;2.15;1.52;;;20.80;57.60;;;;;;5062174;28;20028;-82
2022/07/30 06:09:14;;;;;;;1.70;1.60;;;20.80;57.70;;;;;;5060842;28;20053;-80
2022/07/30 06:11:40;;;;;;;2.65;1.75;;;20.80;57.70;;;;;;5031521;28;20248;-82
2022/07/30 06:14:06;;;;;;;1.80;1.60;;;20.80;57.70;;;;;;5065889;28;20469;-80
2022/07/30 06:16:32;;;;;;;2.28;1.60;;;20.70;57.60;;;;;;5059942;28;20081;-80
2022/07/30 06:18:58;;;;;;;2.00;1.77;;;20.70;57.60;;;;;;5045504;28;20036;-81
2022/07/30 06:21:36;;;;;;;1.70;1.52;;;20.80;57.70;;;;;;5077337;28;20032;-81
2022/07/30 06:24:09;;;;;;;1.70;1.60;;;20.70;57.60;;;;;;5069900;28;20025;-81
2022/07/30 06:26:38;;;;;;;3.55;2.00;;;20.80;57.60;;;;;;5071162;28;20083;-82
2022/07/30 06:29:06;;;;;;;2.35;1.70;;;20.80;57.70;;;;;;5055982;28;20029;-81
2022/07/30 06:31:32;;;;;;;2.28;1.70;;;20.80;57.70;;;;;;5063121;28;20497;-80
2022/07/30 06:33:57;;;;;;;1.65;1.55;;;20.70;57.60;;;;;;5068562;28;20024;-81
2022/07/30 06:36:26;;;;;;;2.50;1.60;;;20.70;57.60;;;;;;5090008;27;20041;-83
2022/07/30 06:39:10;;;;;;;2.28;1.80;;;20.70;57.60;;;;;;5087269;28;20064;-81
2022/07/30 06:41:58;;;;;;;1.92;1.73;;;20.70;57.60;;;;;;5065970;28;20500;-80
2022/07/30 06:44:47;;;;;;;1.98;1.50;;;20.70;57.60;;;;;;5056896;28;20037;-81
2022/07/30 06:47:28;;;;;;;2.03;1.60;;;20.70;57.60;;;;;;5055119;28;20043;-83
2022/07/30 06:49:55;;;;;;;2.65;1.70;;;20.70;57.60;;;;;;5070579;28;20021;-82
2022/07/30 06:52:21;;;;;;;2.28;1.70;;;20.80;57.70;;;;;;5070231;28;20044;-82
2022/07/30 06:54:50;;;;;;;2.15;1.40;;;20.80;57.70;;;;;;5098342;28;20037;-82
2022/07/30 06:57:42;;;;;;;1.40;1.30;;;20.80;57.80;;;;;;5063582;28;20151;-83
2022/07/30 07:00:15;;;;;;;2.55;1.80;;;20.80;57.70;;;;;;5069891;28;20024;-83
2022/07/30 07:02:44;;;;;;;2.17;1.73;;;20.80;57.80;;;;;;5073187;28;20068;-82
2022/07/30 07:05:13;;;;;;;2.22;1.45;;;20.80;57.80;;;;;;5066776;28;20028;-81
2022/07/30 07:07:43;;;;;;;1.83;1.55;;;20.80;57.80;;;;;;5088002;28;20119;-81
2022/07/30 07:10:11;;;;;;;1.75;1.40;;;20.80;57.70;;;;;;5086422;28;20029;-80
2022/07/30 07:12:43;;;;;;;1.98;1.67;;;20.80;57.70;;;;;;5063793;28;20194;-81
2022/07/30 07:15:10;;;;;;;2.47;1.70;;;20.80;57.70;;;;;;5072782;28;20036;-79
2022/07/30 07:17:37;;;;;;;1.73;1.58;;;20.80;57.80;;;;;;5059649;28;20547;-80
2022/07/30 07:20:03;;;;;;;1.70;1.40;;;20.80;57.70;;;;;;5064465;28;20032;-80
2022/07/30 07:22:36;;;;;;;1.63;1.52;;;20.80;57.70;;;;;;5053844;28;20044;-80
2022/07/30 07:25:02;;;;;;;2.08;1.38;;;20.90;57.70;;;;;;5065998;28;20028;-80
2022/07/30 07:27:30;;;;;;;1.73;1.60;;;20.90;57.80;;;;;;5050814;28;20048;-81
2022/07/30 07:29:59;;;;;;;1.70;1.27;;;20.80;57.70;;;;;;5078473;28;21916;-80
2022/07/30 07:32:25;;;;;;;2.20;1.33;;;20.90;57.70;;;;;;5064678;28;20038;-79
2022/07/30 07:34:50;;;;;;;2.53;1.60;;;20.90;57.70;;;;;;5063189;28;20119;-78
2022/07/30 07:37:16;;;;;;;1.50;1.40;;;20.90;57.60;;;;;;5051902;28;20048;-81
2022/07/30 07:39:42;;;;;;;1.52;1.38;;;20.90;57.70;;;;;;5071956;28;20370;-79
2022/07/30 07:42:08;;;;;;;1.85;1.30;;;20.90;57.60;;;;;;5070618;28;20051;-80
2022/07/30 07:44:37;;;;;;;1.48;1.30;;;20.90;57.60;;;;;;5069001;28;20058;-81
2022/07/30 07:47:03;;;;;;;1.63;1.27;;;21.00;57.60;;;;;;5064320;28;20043;-80
2022/07/30 07:49:34;;;;;;;1.67;1.38;;;21.00;57.60;;;;;;5081293;28;20094;-80
2022/07/30 07:52:00;;;;;;;1.55;1.20;;;21.00;57.60;;;;;;5074767;28;20047;-80
2022/07/30 07:54:26;;;;;;;1.98;1.35;;;21.00;57.50;;;;;;5051790;28;20033;-81
2022/07/30 07:56:56;;;;;;;2.28;1.42;;;21.00;57.50;;;;;;5103589;28;20055;-80
2022/07/30 07:59:28;;;;;;;1.40;1.30;;;21.10;57.60;;;;;;5067552;28;20029;-80
2022/07/30 08:01:54;;;;;;;1.30;1.20;;;21.10;57.50;;;;;;5086670;28;20040;-82
2022/07/30 08:04:39;;;;;;;2.53;1.38;;;21.10;57.40;;;;;;5066582;28;20401;-81
2022/07/30 08:07:11;;;;;;;2.30;1.50;;;21.10;57.30;;;;;;5074441;28;20036;-82
2022/07/30 08:09:45;;;;;;;;;;;21.20;57.30;;;;;;5055485;28;20032;-82
2022/07/30 08:12:17;;;;;;;1.27;1.17;;;21.20;57.10;;;;;;5078780;28;19954;-80
2022/07/30 08:14:52;;;;;;;1.83;1.30;;;21.30;57.00;;;;;;5072429;28;20041;-80
2022/07/30 08:17:44;;;;;;;1.48;1.30;;;21.30;57.10;;;;;;5068473;28;20059;-80
2022/07/30 08:20:17;;;;;;;1.80;1.23;;;21.30;57.10;;;;;;5071223;28;20081;-82
2022/07/30 08:22:43;;;;;;;1.50;1.30;;;21.40;57.00;;;;;;5057639;28;20044;-82
2022/07/30 08:25:09;;;;;;;2.15;1.42;;;21.40;57.00;;;;;;5037636;28;20346;-80
2022/07/30 08:27:35;;;;;;;1.80;1.38;;;21.50;56.90;;;;;;5069511;28;20043;-80
2022/07/30 08:30:08;;;;;;;1.38;1.27;;;21.60;56.80;;;;;;5052339;28;20097;-82
2022/07/30 08:32:35;;;;;;;1.40;1.20;;;21.60;56.80;;;;;;5080797;28;20059;-82
2022/07/30 08:35:04;;;;;;;1.17;1.05;;;21.70;56.70;;;;;;5067439;28;20024;-81
2022/07/30 08:37:31;;;;;;;1.58;1.20;;;21.80;56.60;;;;;;5049174;28;20139;-82
2022/07/30 08:39:58;;;;;;;1.38;1.27;;;21.80;56.50;;;;;;5087782;28;20772;-81
2022/07/30 08:42:24;;;;;;;1.65;1.30;;;21.90;56.40;;;;;;5096061;28;20037;-82
2022/07/30 08:44:53;;;;;;;1.55;1.23;;;22.00;56.40;;;;;;5064368;28;20036;-81
2022/07/30 08:47:24;;;;;;;1.60;1.30;;;22.10;56.30;;;;;;5046608;28;20041;-81
2022/07/30 08:50:16;;;;;;;2.03;1.38;;;22.20;56.30;;;;;;5070431;28;20027;-82
2022/07/30 08:53:00;;;;;;;;;;;22.30;56.10;;;;;;5049978;28;20048;-82
2022/07/30 08:55:26;;;;;;;2.03;1.40;;;22.30;55.80;;;;;;5067900;28;19912;-81
2022/07/30 08:57:52;;;;;;;3.13;1.40;;;22.40;55.70;;;;;;5070980;28;20545;-81
2022/07/30 09:00:18;;;;;;;1.50;1.40;;;22.50;55.80;;;;;;5056685;28;20037;-81
2022/07/30 09:02:44;;;;;;;3.10;1.60;;;22.50;55.80;;;;;;5069598;28;20089;-80
2022/07/30 09:05:11;;;;;;;1.77;1.30;;;22.60;55.70;;;;;;5080261;28;20388;-82
2022/07/30 09:07:38;;;;;;;2.13;1.30;;;22.60;55.60;;;;;;5051662;28;20032;-81
2022/07/30 09:10:08;;;;;;;1.75;1.30;;;22.80;55.60;;;;;;5070611;28;20032;-80
2022/07/30 09:12:37;;;;;;;1.85;1.15;;;22.80;55.50;;;;;;5061637;28;21328;-80
2022/07/30 09:15:16;;;;;;;1.50;1.40;;;22.90;55.40;;;;;;5081513;28;20025;-80
2022/07/30 09:18:01;;;;;;;2.05;1.42;;;23.00;55.30;;;;;;5070342;28;20055;-80
2022/07/30 09:20:34;;;;;;;2.50;1.10;;;23.10;55.30;;;;;;5051793;28;20859;-81
2022/07/30 09:23:05;;;;;;;1.48;1.20;;;23.20;55.10;;;;;;5081131;28;20489;-80
2022/07/30 09:25:38;;;;;;;1.30;1.20;;;23.30;55.00;;;;;;5071758;28;20040;-79
2022/07/30 09:28:31;;;;;;;1.63;1.15;;;23.40;54.90;;;;;;5071288;28;20066;-80
2022/07/30 09:31:13;;;;;;;1.67;1.20;;;23.50;54.90;;;;;;5069730;28;20024;-83
2022/07/30 09:33:57;;;;;;;;;;;23.60;54.70;;;;;;5054994;28;20039;-80
2022/07/30 09:36:41;;;;;;;0.93;0.90;;;23.60;54.50;;;;;;5062841;28;19973;-78
2022/07/30 09:39:33;;;;;;;1.42;1.00;;;23.70;54.40;;;;;;5042710;28;20062;-81
2022/07/30 09:42:31;;;;;;;1.55;1.20;;;23.80;54.50;;;;;;5052149;28;20048;-82
2022/07/30 09:45:09;;;;;;;1.00;1.00;;;23.90;54.40;;;;;;5064411;28;20064;-82
2022/07/30 09:47:47;;;;;;;1.88;1.20;;;24.00;54.40;;;;;;5061962;28;20044;-82
2022/07/30 09:50:15;;;;;;;1.23;1.13;;;24.10;54.40;;;;;;5084866;28;20033;-85
2022/07/30 09:52:42;;;;;;;1.20;1.10;;;24.20;54.30;;;;;;5042848;28;20036;-81
2022/07/30 09:55:10;;;;;;;1.77;1.15;;;24.30;54.20;;;;;;5065641;28;20028;-81
2022/07/30 09:57:55;;;;;;;1.45;1.25;;;24.40;54.10;;;;;;5071555;28;20078;-80
2022/07/30 10:00:22;;;;;;;2.35;1.10;;;24.50;54.20;;;;;;5075796;28;20051;-82
2022/07/30 10:03:01;;;;;;;1.48;1.20;;;24.60;53.90;;;;;;5071542;28;20021;-81
2022/07/30 10:05:54;;;;;;;1.15;1.05;;;24.70;53.90;;;;;;5088466;28;20052;-82
2022/07/30 10:08:36;;;;;;;1.42;1.10;;;24.80;53.80;;;;;;5088799;28;20165;-82
2022/07/30 10:11:02;;;;;;;1.65;1.17;;;24.80;53.70;;;;;;5072903;28;20029;-81
2022/07/30 10:13:28;;;;;;;2.35;1.05;;;24.90;53.60;;;;;;5070856;28;20033;-81
2022/07/30 10:15:54;;;;;;;1.20;1.10;;;25.00;53.60;;;;;;5075060;28;20035;-81
2022/07/30 10:18:20;;;;;;;1.17;1.00;;;25.10;53.50;;;;;;5086712;28;20040;-81
2022/07/30 10:20:49;;;;;;;1.20;1.08;;;25.20;53.50;;;;;;5075691;28;20040;-83
2022/07/30 10:23:39;;;;;;;1.88;1.38;;;25.30;53.40;;;;;;5038667;28;20044;-81
2022/07/30 10:26:25;;;;;;;1.63;1.20;;;25.40;53.40;;;;;;5073326;28;20044;-82
2022/07/30 10:29:11;;;;;;;1.13;1.00;;;25.50;53.30;;;;;;5063361;28;20044;-82
2022/07/30 10:31:37;;;;;;;1.10;1.00;;;25.60;53.20;;;;;;5073470;28;20044;-81
2022/07/30 10:34:03;;;;;;;1.27;1.17;;;25.70;53.20;;;;;;5075782;28;20107;-82
2022/07/30 10:36:30;;;;;;;0.95;0.88;;;25.70;53.10;;;;;;5055656;28;20036;-81
2022/07/30 10:38:56;;;;;;;1.88;1.30;;;25.80;53.10;;;;;;5070545;28;20064;-80
2022/07/30 10:41:24;;;;;;;0.95;0.88;;;25.90;53.00;;;;;;5086409;28;20036;-81
2022/07/30 10:44:11;;;;;;;1.17;1.10;;;26.00;53.00;;;;;;5072882;28;20056;-82
2022/07/30 10:47:09;;;;;;;1.52;1.10;;;26.10;53.00;;;;;;5087769;28;20055;-81
2022/07/30 10:49:35;;;;;;;1.67;1.02;;;26.20;52.90;;;;;;5055479;28;20028;-81
2022/07/30 10:52:01;;;;;;;1.45;1.02;;;26.30;52.80;;;;;;5075284;28;20075;-81
2022/07/30 10:54:43;;;;;;;1.35;1.00;;;26.40;52.70;;;;;;5071164;28;20064;-83
2022/07/30 10:57:19;;;;;;;1.10;1.00;;;26.50;52.70;;;;;;5087185;28;20035;-80
2022/07/30 10:59:54;;;;;;;1.48;0.90;;;26.50;52.50;;;;;;5079424;28;20512;-81
2022/07/30 11:02:25;;;;;;;1.00;0.90;;;26.60;52.50;;;;;;5074753;28;20028;-82
2022/07/30 11:05:17;;;;;;;1.10;1.00;;;26.70;52.50;;;;;;5055116;28;20033;-81
2022/07/30 11:07:44;;;;;;;1.17;1.05;;;26.70;52.50;;;;;;5091270;28;20029;-82
2022/07/30 11:10:34;;;;;;;1.08;0.98;;;26.80;52.30;;;;;;5055959;28;20029;-81
2022/07/30 11:13:00;;;;;;;1.20;0.90;;;26.90;52.40;;;;;;5072018;28;20024;-82
2022/07/30 11:15:56;;;;;;;1.25;1.15;;;27.00;52.30;;;;;;5069661;28;20029;-82
2022/07/30 11:18:24;;;;;;;0.95;0.90;;;27.00;52.50;;;;;;5066968;28;20033;-81
2022/07/30 11:21:12;;;;;;;0.95;0.88;;;27.10;52.40;;;;;;5084124;28;20086;-81
2022/07/30 11:23:39;;;;;;;0.98;0.90;;;27.20;52.60;;;;;;5088658;28;20025;-81
2022/07/30 11:26:05;;;;;;;1.10;0.95;;;27.30;52.60;;;;;;5069983;28;20036;-81
2022/07/30 11:28:45;;;;;;;1.20;0.90;;;27.30;52.70;;;;;;5086355;28;20059;-81
2022/07/30 11:31:37;;;;;;;1.50;1.00;;;27.30;52.80;;;;;;5071923;28;20033;-82
2022/07/30 11:34:18;;;;;;;0.80;0.80;;;27.40;52.90;;;;;;5087886;28;20040;-81
2022/07/30 11:37:05;;;;;;;1.30;0.98;;;27.40;52.90;;;;;;5101852;28;20033;-80
2022/07/30 11:39:53;;;;;;;0.90;0.90;;;27.40;53.00;;;;;;5106690;27;20610;-81
2022/07/30 11:42:33;;;;;;;1.48;1.13;;;27.40;53.00;;;;;;5067641;28;20449;-81
2022/07/30 11:45:14;;;;;;;0.82;0.82;;;27.50;53.20;;;;;;5071192;28;20064;-80
2022/07/30 11:47:45;;;;;;;1.00;0.90;;;27.50;53.30;;;;;;5084010;28;20038;-81
2022/07/30 11:50:22;;;;;;;0.98;0.90;;;27.50;53.30;;;;;;5084730;28;20028;-81
2022/07/30 11:52:57;;;;;;;1.20;1.08;;;27.50;53.40;;;;;;5072022;28;20025;-81
2022/07/30 11:55:25;;;;;;;1.15;0.95;;;27.60;53.50;;;;;;5070649;28;20035;-81
2022/07/30 11:57:52;;;;;;;1.20;0.93;;;27.60;53.50;;;;;;5073833;28;20073;-81
2022/07/30 12:00:19;;;;;;;1.30;1.20;;;27.60;53.60;;;;;;5070629;28;20072;-81
2022/07/30 12:02:45;;;;;;;1.30;1.13;;;27.60;53.60;;;;;;5066873;28;20596;-82
2022/07/30 12:05:11;;;;;;;1.23;0.93;;;27.70;53.80;;;;;;5101214;28;20021;-80
2022/07/30 12:07:37;;;;;;;1.20;1.10;;;27.70;53.80;;;;;;5059785;28;20058;-81
2022/07/30 12:10:17;;;;;;;1.00;0.95;;;27.70;53.90;;;;;;5051449;28;20464;-81
2022/07/30 12:12:43;;;;;;;1.67;1.00;;;27.70;54.00;;;;;;5079195;28;20020;-81
2022/07/30 12:15:10;;;;;;;1.10;1.00;;;27.80;54.00;;;;;;5063323;28;20630;-81
2022/07/30 12:17:44;;;;;;;1.10;0.98;;;27.80;54.20;;;;;;5071937;28;20634;-80
2022/07/30 12:20:15;;;;;;;1.10;1.00;;;27.80;54.20;;;;;;5100053;28;20060;-81
2022/07/30 12:22:42;;;;;;;1.67;1.48;;;27.90;54.20;;;;;;5060188;28;20029;-81
2022/07/30 12:25:08;;;;;;;2.58;1.10;;;27.90;54.10;;;;;;5068649;28;20025;-82
2022/07/30 12:27:34;;;;;;;1.23;1.00;;;27.90;54.00;;;;;;5054698;28;20473;-82
2022/07/30 12:30:00;;;;;;;2.30;1.13;;;27.90;54.00;;;;;;5066514;28;20032;-81
2022/07/30 12:32:26;;;;;;;1.10;1.00;;;27.90;53.90;;;;;;5046442;28;20119;-82
2022/07/30 12:34:56;;;;;;;0.90;0.90;;;28.00;54.00;;;;;;5065008;28;20373;-85
2022/07/30 12:37:24;;;;;;;1.40;1.10;;;28.00;54.00;;;;;;5063327;28;20114;-86
2022/07/30 12:40:05;;;;;;;1.02;1.02;;;28.10;54.00;;;;;;5069497;28;20028;-85
2022/07/30 12:42:31;;;;;;;1.25;1.00;;;28.10;54.10;;;;;;5069313;28;20032;-83
2022/07/30 12:44:57;;;;;;;1.20;1.10;;;28.10;54.30;;;;;;5052284;28;20035;-81
2022/07/30 12:47:27;;;;;;;1.10;1.00;;;28.10;54.00;;;;;;5066346;28;20029;-83
2022/07/30 12:49:55;;;;;;;0.90;0.90;;;28.10;54.10;;;;;;5102300;28;20094;-87
2022/07/30 12:52:29;;;;;;;1.48;1.00;;;28.10;53.80;;;;;;5065906;28;20434;-91
2022/07/30 12:55:00;;;;;;;0.98;0.98;;;28.10;53.40;;;;;;5053393;28;20032;-88
2022/07/30 12:57:26;;;;;;;1.23;1.13;;;28.20;53.10;;;;;;5099458;28;20045;-87
2022/07/30 13:00:12;;;;;;;1.25;1.15;;;28.20;52.10;;;;;;5063355;28;20044;-88
2022/07/30 13:02:37;;;;;;;1.85;1.20;;;28.10;51.30;;;;;;5065113;28;20041;-85
2022/07/30 13:05:04;;;;;;;4.78;1.20;;;28.20;50.90;;;;;;5083432;28;20102;-87
2022/07/30 13:07:31;;;;;;;2.90;1.15;;;28.10;50.50;;;;;;5073541;28;20040;-85
2022/07/30 13:10:10;;;;;;;1.30;1.15;;;28.10;50.30;;;;;;5053397;28;20029;-85
2022/07/30 13:12:36;;;;;;;1.35;1.20;;;28.10;50.20;;;;;;5096467;28;20511;-85